createdAt,value
2016-02-29T00:00:52.824Z,11.11
2016-02-29T00:01:52.826Z,11.01
2016-02-29T00:02:52.845Z,11.01
2016-02-29T00:03:52.848Z,10.82
2016-02-29T00:04:52.850Z,10.91
2016-02-29T00:05:52.868Z,10.82
2016-02-29T00:06:52.856Z,10.91
2016-02-29T00:07:52.873Z,11.01
2016-02-29T00:08:52.861Z,10.92
2016-02-29T00:09:52.879Z,10.82
2016-02-29T00:10:52.882Z,11.02
2016-02-29T00:11:52.901Z,11.11
2016-02-29T00:12:52.887Z,10.82
2016-02-29T00:13:52.906Z,11.02
2016-02-29T00:14:52.893Z,10.92
2016-02-29T00:19:13.485Z,10.92
2016-02-29T00:19:42.188Z,10.92
2016-02-29T00:20:42.175Z,11.02
2016-02-29T00:21:42.193Z,11.02
2016-02-29T00:22:42.180Z,11.3
2016-02-29T00:23:42.199Z,10.92
2016-02-29T00:24:42.201Z,11.02
2016-02-29T00:25:42.204Z,10.92
2016-02-29T00:26:42.487Z,11.3
2016-02-29T00:27:42.225Z,11.02
2016-02-29T00:28:42.227Z,11.02
2016-02-29T00:29:42.235Z,11.21
2016-02-29T00:30:42.238Z,11.4
2016-02-29T00:31:42.240Z,10.92
2016-02-29T00:32:42.243Z,11.02
2016-02-29T00:33:42.245Z,11.4
2016-02-29T00:34:42.264Z,11.11
2016-02-29T00:35:42.283Z,11.21
2016-02-29T00:36:42.269Z,11.69
2016-02-29T00:37:42.288Z,11.88
2016-02-29T00:38:42.275Z,11.4
2016-02-29T00:39:42.293Z,11.5
2016-02-29T00:40:42.296Z,12.27
2016-02-29T00:41:42.299Z,11.69
2016-02-29T00:42:42.317Z,11.6
2016-02-29T00:43:42.304Z,11.88
2016-02-29T00:44:42.322Z,11.6
2016-02-29T00:49:35.804Z,11.88
2016-02-29T00:50:35.807Z,11.79
2016-02-29T00:51:35.810Z,11.3
2016-02-29T00:52:35.828Z,11.88
2016-02-29T00:53:35.831Z,11.69
2016-02-29T00:54:35.834Z,11.3
2016-02-29T00:55:35.836Z,11.79
2016-02-29T00:56:35.854Z,11.69
2016-02-29T00:57:35.857Z,11.88
2016-02-29T00:58:35.860Z,11.6
2016-02-29T00:59:35.862Z,11.4
2016-02-29T01:00:35.865Z,11.3
2016-02-29T01:01:35.883Z,11.98
2016-02-29T01:02:35.901Z,11.79
2016-02-29T01:03:35.904Z,11.11
2016-02-29T01:04:35.892Z,11.02
2016-02-29T01:05:35.894Z,11.01
2016-02-29T01:06:35.912Z,11.21
2016-02-29T01:07:35.915Z,11.49
2016-02-29T01:08:35.917Z,11.11
2016-02-29T01:09:35.920Z,11.21
2016-02-29T01:10:35.922Z,11.4
2016-02-29T01:11:35.941Z,11.01
2016-02-29T01:12:35.944Z,11.21
2016-02-29T01:13:35.947Z,11.11
2016-02-29T01:14:35.950Z,11.01
2016-02-29T01:16:08.768Z,11.01
2016-02-29T01:16:35.955Z,10.91
2016-02-29T01:17:35.974Z,10.91
2016-02-29T01:18:35.977Z,10.63
2016-02-29T01:19:35.979Z,10.43
2016-02-29T01:20:35.981Z,10.53
2016-02-29T01:21:35.985Z,10.91
2016-02-29T01:22:36.002Z,10.92
2016-02-29T01:23:36.005Z,10.92
2016-02-29T01:24:36.008Z,10.91
2016-02-29T01:25:36.010Z,11.01
2016-02-29T01:26:36.045Z,10.91
2016-02-29T01:27:36.016Z,10.43
2016-02-29T01:28:36.019Z,10.91
2016-02-29T01:29:36.020Z,10.82
2016-02-29T01:30:36.039Z,10.91
2016-02-29T01:31:36.042Z,11.01
2016-02-29T01:32:36.045Z,11.01
2016-02-29T01:33:36.063Z,10.43
2016-02-29T01:34:36.067Z,10.53
2016-02-29T01:35:36.069Z,10.33
2016-02-29T01:36:36.072Z,10.43
2016-02-29T01:37:36.075Z,10.43
2016-02-29T01:38:36.092Z,10.53
2016-02-29T01:39:36.079Z,10.43
2016-02-29T01:40:36.097Z,10.63
2016-02-29T01:41:36.085Z,10.43
2016-02-29T01:42:36.103Z,10.53
2016-02-29T01:43:36.105Z,10.43
2016-02-29T01:44:36.108Z,10.43
2016-02-29T01:48:34.963Z,11.4
2016-02-29T01:49:25.372Z,10.53
2016-02-29T01:50:25.374Z,10.63
2016-02-29T01:51:25.393Z,11.01
2016-02-29T01:52:25.396Z,10.43
2016-02-29T01:53:25.399Z,10.43
2016-02-29T01:54:25.417Z,10.43
2016-02-29T01:55:25.419Z,10.43
2016-02-29T01:56:25.438Z,10.43
2016-02-29T01:57:25.425Z,10.53
2016-02-29T01:58:25.427Z,10.53
2016-02-29T01:59:25.430Z,10.33
2016-02-29T02:00:25.430Z,11.47
2016-02-29T02:01:25.418Z,11.68
2016-02-29T02:02:25.406Z,11.1
2016-02-29T02:03:25.409Z,11.1
2016-02-29T02:04:25.397Z,10.53
2016-02-29T02:05:25.386Z,10.53
2016-02-29T02:06:25.383Z,10.53
2016-02-29T02:07:25.381Z,10.63
2016-02-29T02:08:25.378Z,10.63
2016-02-29T02:09:25.375Z,10.43
2016-02-29T02:10:25.389Z,10.53
2016-02-29T02:11:25.390Z,10.53
2016-02-29T02:12:25.391Z,10.43
2016-02-29T02:13:25.391Z,10.63
2016-02-29T02:14:25.407Z,10.33
2016-02-29T02:15:47.002Z,10.53
2016-02-29T02:16:25.395Z,10.63
2016-02-29T02:17:25.397Z,10.43
2016-02-29T02:18:25.414Z,10.43
2016-02-29T02:19:25.415Z,10.43
2016-02-29T02:20:25.418Z,10.63
2016-02-29T02:21:25.420Z,10.44
2016-02-29T02:22:25.424Z,10.44
2016-02-29T02:23:25.442Z,10.53
2016-02-29T02:24:25.445Z,10.44
2016-02-29T02:25:25.464Z,10.63
2016-02-29T02:26:25.466Z,10.44
2016-02-29T02:27:25.453Z,10.53
2016-02-29T02:28:25.471Z,10.72
2016-02-29T02:29:25.474Z,10.44
2016-02-29T02:30:25.476Z,10.63
2016-02-29T02:31:25.480Z,10.34
2016-02-29T02:32:25.483Z,10.53
2016-02-29T02:33:25.500Z,10.53
2016-02-29T02:34:25.503Z,10.44
2016-02-29T02:35:25.505Z,10.34
2016-02-29T02:36:25.508Z,10.44
2016-02-29T02:37:25.511Z,10.63
2016-02-29T02:38:25.529Z,10.44
2016-02-29T02:39:25.547Z,10.63
2016-02-29T02:40:25.535Z,10.53
2016-02-29T02:41:25.537Z,10.63
2016-02-29T02:42:25.555Z,10.82
2016-02-29T02:43:25.402Z,11.02
2016-02-29T02:44:25.561Z,11.3
2016-02-29T02:47:32.429Z,11.21
2016-02-29T02:48:32.431Z,11.21
2016-02-29T02:49:32.448Z,11.21
2016-02-29T02:50:32.452Z,11.02
2016-02-29T02:51:32.470Z,11.11
2016-02-29T02:52:32.457Z,11.11
2016-02-29T02:53:32.476Z,11.11
2016-02-29T02:54:32.462Z,10.92
2016-02-29T02:55:32.481Z,11.11
2016-02-29T02:56:32.484Z,11.02
2016-02-29T02:57:32.486Z,11.02
2016-02-29T02:58:32.506Z,10.92
2016-02-29T02:59:32.508Z,11.02
2016-02-29T03:00:32.511Z,11.21
2016-02-29T03:01:32.528Z,11.11
2016-02-29T03:02:32.516Z,11.21
2016-02-29T03:03:32.534Z,11.11
2016-02-29T03:04:32.537Z,10.92
2016-02-29T03:05:32.555Z,11.11
2016-02-29T03:06:32.558Z,11.02
2016-02-29T03:07:32.561Z,11.3
2016-02-29T03:08:32.563Z,11.01
2016-02-29T03:09:32.566Z,10.91
2016-02-29T03:10:32.585Z,10.91
2016-02-29T03:11:32.587Z,11.21
2016-02-29T03:12:32.590Z,11.21
2016-02-29T03:13:32.593Z,11.02
2016-02-29T03:14:32.595Z,11.11
2016-02-29T03:19:46.171Z,11.11
2016-02-29T03:20:46.189Z,11.11
2016-02-29T03:21:46.192Z,11.01
2016-02-29T03:22:46.225Z,11.21
2016-02-29T03:23:46.213Z,11.11
2016-02-29T03:24:46.215Z,11.11
2016-02-29T03:25:46.218Z,11.21
2016-02-29T03:26:46.205Z,11.02
2016-02-29T03:27:46.223Z,10.91
2016-02-29T03:28:46.226Z,10.92
2016-02-29T03:29:46.229Z,11.11
2016-02-29T03:30:46.248Z,11.21
2016-02-29T03:31:46.250Z,10.82
2016-02-29T03:32:46.253Z,10.63
2016-02-29T03:33:46.255Z,10.63
2016-02-29T03:34:46.275Z,11.01
2016-02-29T03:35:46.277Z,10.91
2016-02-29T03:36:46.280Z,10.82
2016-02-29T03:37:46.297Z,11.3
2016-02-29T03:38:46.316Z,11.3
2016-02-29T03:39:46.302Z,10.72
2016-02-29T03:40:46.305Z,10.82
2016-02-29T03:41:46.307Z,10.82
2016-02-29T03:42:46.310Z,10.91
2016-02-29T03:43:46.330Z,10.82
2016-02-29T03:44:46.332Z,10.72
2016-02-29T03:48:56.812Z,10.91
2016-02-29T03:49:35.596Z,11.01
2016-02-29T03:50:35.598Z,10.82
2016-02-29T03:51:35.601Z,10.82
2016-02-29T03:52:35.618Z,11.01
2016-02-29T03:53:35.622Z,10.91
2016-02-29T03:54:35.624Z,11.01
2016-02-29T03:55:35.627Z,10.82
2016-02-29T03:56:35.645Z,10.91
2016-02-29T03:57:35.632Z,10.53
2016-02-29T03:58:35.651Z,10.82
2016-02-29T03:59:35.654Z,11.01
2016-02-29T04:00:35.672Z,11.01
2016-02-29T04:01:35.659Z,10.43
2016-02-29T04:02:35.678Z,10.44
2016-02-29T04:03:35.681Z,10.43
2016-02-29T04:04:35.683Z,10.53
2016-02-29T04:05:35.686Z,10.72
2016-02-29T04:06:35.689Z,10.53
2016-02-29T04:07:35.706Z,10.33
2016-02-29T04:08:35.708Z,10.53
2016-02-29T04:09:35.711Z,10.53
2016-02-29T04:10:35.714Z,10.43
2016-02-29T04:11:35.716Z,10.43
2016-02-29T04:12:35.735Z,10.82
2016-02-29T04:13:35.738Z,10.53
2016-02-29T04:14:35.757Z,10.63
2016-02-29T04:20:11.616Z,10.33
2016-02-29T04:21:11.619Z,10.53
2016-02-29T04:22:11.637Z,10.44
2016-02-29T04:23:11.640Z,10.43
2016-02-29T04:24:11.658Z,10.33
2016-02-29T04:25:11.645Z,10.44
2016-02-29T04:26:11.648Z,10.53
2016-02-29T04:27:11.667Z,10.43
2016-02-29T04:28:11.670Z,10.53
2016-02-29T04:29:11.672Z,10.53
2016-02-29T04:30:11.675Z,10.43
2016-02-29T04:31:11.678Z,10.63
2016-02-29T04:32:11.680Z,10.63
2016-02-29T04:33:11.699Z,10.72
2016-02-29T04:34:11.701Z,10.82
2016-02-29T04:35:11.705Z,10.43
2016-02-29T04:36:11.707Z,10.63
2016-02-29T04:37:11.710Z,10.63
2016-02-29T04:38:11.728Z,10.43
2016-02-29T04:39:11.731Z,10.44
2016-02-29T04:40:11.734Z,10.44
2016-02-29T04:41:11.736Z,10.33
2016-02-29T04:42:11.739Z,10.24
2016-02-29T04:43:11.757Z,9.95
2016-02-29T04:44:11.759Z,10.92
2016-02-29T04:45:11.762Z,10.33
2016-02-29T04:48:17.896Z,9.95
2016-02-29T04:49:17.898Z,10.24
2016-02-29T04:50:17.917Z,10.24
2016-02-29T04:51:17.919Z,10.24
2016-02-29T04:52:17.922Z,10.24
2016-02-29T04:53:17.925Z,10.05
2016-02-29T04:54:17.943Z,10.24
2016-02-29T04:55:17.946Z,10.05
2016-02-29T04:56:17.949Z,10.43
2016-02-29T04:57:17.967Z,10.33
2016-02-29T04:58:17.954Z,10.33
2016-02-29T04:59:17.972Z,9.95
2016-02-29T05:00:17.959Z,10.33
2016-02-29T05:01:17.978Z,10.14
2016-02-29T05:02:17.980Z,10.63
2016-02-29T05:03:17.983Z,10.24
2016-02-29T05:04:18.001Z,10.24
2016-02-29T05:05:17.832Z,10.14
2016-02-29T05:06:17.994Z,9.95
2016-02-29T05:07:18.012Z,10.14
2016-02-29T05:08:18.015Z,10.33
2016-02-29T05:09:18.018Z,10.14
2016-02-29T05:10:18.035Z,10.14
2016-02-29T05:11:18.023Z,10.14
2016-02-29T05:12:18.040Z,10.33
2016-02-29T05:13:18.043Z,10.24
2016-02-29T05:14:18.047Z,10.44
2016-02-29T05:18:12.211Z,10.24
2016-02-29T05:19:07.323Z,10.33
2016-02-29T05:20:07.325Z,10.34
2016-02-29T05:21:07.328Z,10.34
2016-02-29T05:22:07.331Z,10.24
2016-02-29T05:23:07.333Z,10.14
2016-02-29T05:24:07.352Z,10.43
2016-02-29T05:25:07.339Z,10.33
2016-02-29T05:26:07.341Z,10.24
2016-02-29T05:27:07.453Z,10.33
2016-02-29T05:28:07.363Z,10.14
2016-02-29T05:29:07.381Z,10.34
2016-02-29T05:30:07.383Z,10.14
2016-02-29T05:31:07.386Z,10.14
2016-02-29T05:32:07.388Z,10.24
2016-02-29T05:33:07.407Z,10.43
2016-02-29T05:34:07.395Z,10.24
2016-02-29T05:35:07.413Z,10.33
2016-02-29T05:36:07.416Z,10.14
2016-02-29T05:37:07.418Z,10.53
2016-02-29T05:38:07.421Z,10.14
2016-02-29T05:39:07.424Z,10.43
2016-02-29T05:40:07.427Z,10.05
2016-02-29T05:41:07.429Z,10.34
2016-02-29T05:42:07.463Z,10.14
2016-02-29T05:43:07.450Z,10.14
2016-02-29T05:44:07.454Z,10.63
2016-02-29T05:45:07.455Z,10.24
2016-02-29T05:48:14.323Z,10.14
2016-02-29T05:49:14.342Z,10.33
2016-02-29T05:50:14.345Z,10.14
2016-02-29T05:51:14.347Z,10.24
2016-02-29T05:52:14.350Z,10.43
2016-02-29T05:53:14.353Z,10.24
2016-02-29T05:54:14.355Z,10.14
2016-02-29T05:55:14.358Z,10.14
2016-02-29T05:56:14.375Z,10.05
2016-02-29T05:57:14.392Z,10.43
2016-02-29T05:58:14.452Z,10.33
2016-02-29T05:59:14.425Z,10.43
2016-02-29T06:00:14.247Z,10.33
2016-02-29T06:01:17.006Z,10.24
2016-02-29T06:02:14.272Z,10.14
2016-02-29T06:03:14.416Z,9.95
2016-02-29T06:04:14.419Z,10.14
2016-02-29T06:05:14.436Z,10.14
2016-02-29T06:06:14.440Z,10.14
2016-02-29T06:07:14.442Z,10.14
2016-02-29T06:08:14.445Z,10.05
2016-02-29T06:09:14.447Z,10.14
2016-02-29T06:10:14.466Z,10.05
2016-02-29T06:11:14.485Z,9.95
2016-02-29T06:12:14.488Z,10.05
2016-02-29T06:13:14.474Z,9.95
2016-02-29T06:14:14.477Z,10.05
2016-02-29T06:18:52.655Z,10.14
2016-02-29T06:19:52.641Z,10.14
2016-02-29T06:20:52.644Z,10.05
2016-02-29T06:21:52.662Z,10.14
2016-02-29T06:22:52.649Z,10.05
2016-02-29T06:23:52.668Z,10.14
2016-02-29T06:24:52.671Z,10.05
2016-02-29T06:25:52.673Z,9.95
2016-02-29T06:26:52.676Z,10.14
2016-02-29T06:27:52.678Z,10.14
2016-02-29T06:28:52.697Z,10.14
2016-02-29T06:29:52.715Z,10.14
2016-02-29T06:30:52.703Z,10.14
2016-02-29T06:31:52.720Z,10.05
2016-02-29T06:32:52.723Z,10.14
2016-02-29T06:33:52.725Z,9.95
2016-02-29T06:34:52.728Z,10.05
2016-02-29T06:35:52.731Z,10.05
2016-02-29T06:36:52.734Z,10.24
2016-02-29T06:37:52.753Z,10.14
2016-02-29T06:38:52.755Z,10.14
2016-02-29T06:39:52.758Z,9.56
2016-02-29T06:40:52.760Z,10.24
2016-02-29T06:41:52.794Z,10.14
2016-02-29T06:42:52.781Z,9.75
2016-02-29T06:43:52.784Z,10.24
2016-02-29T06:44:52.786Z,10.05
2016-02-29T06:46:58.026Z,10.24
2016-02-29T06:47:58.014Z,10.24
2016-02-29T06:48:58.032Z,9.95
2016-02-29T06:49:58.035Z,9.95
2016-02-29T06:50:58.037Z,10.24
2016-02-29T06:51:58.040Z,10.05
2016-02-29T06:52:58.043Z,10.44
2016-02-29T06:53:58.060Z,10.05
2016-02-29T06:54:58.079Z,10.24
2016-02-29T06:55:58.066Z,9.86
2016-02-29T06:56:58.069Z,10.24
2016-02-29T06:57:58.071Z,9.66
2016-02-29T06:58:58.074Z,9.76
2016-02-29T06:59:58.092Z,9.95
2016-02-29T07:00:58.096Z,9.66
2016-02-29T07:01:58.114Z,9.86
2016-02-29T07:02:58.101Z,9.95
2016-02-29T07:03:58.119Z,9.76
2016-02-29T07:04:58.122Z,9.76
2016-02-29T07:05:58.125Z,9.86
2016-02-29T07:06:58.142Z,9.66
2016-02-29T07:07:58.145Z,9.95
2016-02-29T07:08:58.148Z,9.86
2016-02-29T07:09:58.150Z,9.95
2016-02-29T07:10:58.153Z,10.14
2016-02-29T07:11:58.172Z,9.76
2016-02-29T07:12:58.158Z,9.66
2016-02-29T07:13:58.177Z,9.76
2016-02-29T07:14:58.180Z,9.56
2016-02-29T07:19:51.647Z,9.86
2016-02-29T07:20:51.665Z,10.34
2016-02-29T07:21:51.668Z,9.86
2016-02-29T07:22:51.670Z,9.47
2016-02-29T07:23:51.688Z,9.76
2016-02-29T07:24:51.691Z,9.38
2016-02-29T07:25:51.709Z,9.76
2016-02-29T07:26:51.697Z,9.95
2016-02-29T07:27:51.699Z,9.86
2016-02-29T07:28:51.718Z,9.95
2016-02-29T07:29:51.704Z,9.56
2016-02-29T07:30:51.723Z,9.56
2016-02-29T07:31:51.726Z,9.47
2016-02-29T07:32:51.728Z,8.98
2016-02-29T07:33:51.731Z,8.8
2016-02-29T07:34:51.750Z,8.99
2016-02-29T07:35:51.752Z,8.61
2016-02-29T07:36:51.755Z,8.9
2016-02-29T07:37:51.758Z,8.42
2016-02-29T07:38:51.760Z,8.23
2016-02-29T07:39:51.779Z,7.93
2016-02-29T07:40:51.781Z,8.03
2016-02-29T07:41:51.784Z,7.55
2016-02-29T07:42:51.786Z,7.45
2016-02-29T07:43:51.805Z,7.75
2016-02-29T07:44:51.823Z,7.55
2016-02-29T07:48:50.084Z,7.17
2016-02-29T07:49:41.102Z,6.78
2016-02-29T07:50:41.074Z,7.36
2016-02-29T07:51:41.091Z,6.88
2016-02-29T07:52:41.110Z,6.78
2016-02-29T07:53:41.097Z,6.78
2016-02-29T07:54:41.116Z,7.17
2016-02-29T07:55:41.118Z,6.98
2016-02-29T07:56:41.121Z,6.98
2016-02-29T07:57:41.124Z,6.78
2016-02-29T07:58:41.143Z,6.78
2016-02-29T07:59:41.145Z,7.27
2016-02-29T08:00:41.163Z,6.68
2016-02-29T08:01:41.150Z,6.98
2016-02-29T08:02:41.168Z,7.36
2016-02-29T08:03:41.170Z,7.65
2016-02-29T08:04:41.173Z,7.46
2016-02-29T08:05:41.193Z,7.75
2016-02-29T08:06:41.195Z,7.26
2016-02-29T08:07:41.197Z,7.56
2016-02-29T08:08:41.216Z,7.46
2016-02-29T08:09:41.219Z,7.56
2016-02-29T08:10:41.222Z,7.46
2016-02-29T08:11:41.240Z,7.36
2016-02-29T08:12:41.258Z,7.46
2016-02-29T08:13:41.261Z,7.65
2016-02-29T08:14:41.263Z,7.65
2016-02-29T08:17:49.833Z,7.46
2016-02-29T08:18:49.868Z,7.46
2016-02-29T08:19:49.855Z,7.46
2016-02-29T08:20:49.857Z,7.46
2016-02-29T08:21:49.876Z,7.56
2016-02-29T08:22:49.893Z,7.26
2016-02-29T08:23:49.913Z,7.36
2016-02-29T08:24:49.900Z,7.36
2016-02-29T08:25:49.918Z,7.75
2016-02-29T08:26:49.936Z,7.56
2016-02-29T08:27:49.955Z,7.56
2016-02-29T08:28:49.957Z,7.56
2016-02-29T08:29:49.959Z,7.56
2016-02-29T08:30:49.978Z,7.56
2016-02-29T08:31:49.982Z,7.65
2016-02-29T08:32:49.999Z,7.75
2016-02-29T08:33:50.018Z,7.75
2016-02-29T08:34:50.020Z,7.75
2016-02-29T08:35:50.039Z,7.84
2016-02-29T08:36:50.041Z,7.65
2016-02-29T08:37:50.059Z,7.36
2016-02-29T08:38:50.078Z,7.36
2016-02-29T08:39:50.081Z,7.65
2016-02-29T08:40:50.099Z,7.75
2016-02-29T08:41:50.117Z,7.36
2016-02-29T08:42:50.120Z,7.56
2016-02-29T08:43:50.138Z,7.07
2016-02-29T08:44:50.142Z,6.68
2016-02-29T08:49:43.622Z,6.5
2016-02-29T08:50:43.625Z,6.21
2016-02-29T08:51:43.643Z,6.21
2016-02-29T08:52:43.663Z,5.82
2016-02-29T08:53:43.681Z,5.54
2016-02-29T08:54:43.668Z,5.73
2016-02-29T08:55:43.718Z,5.54
2016-02-29T08:56:43.704Z,5.44
2016-02-29T08:57:43.754Z,5.54
2016-02-29T08:58:43.725Z,4.86
2016-02-29T08:59:43.743Z,4.86
2016-02-29T09:00:43.763Z,5.05
2016-02-29T09:01:43.780Z,4.96
2016-02-29T09:02:43.783Z,5.05
2016-02-29T09:03:43.785Z,5.06
2016-02-29T09:04:43.803Z,4.86
2016-02-29T09:05:43.831Z,4.47
2016-02-29T09:06:43.840Z,4.57
2016-02-29T09:07:43.842Z,4.77
2016-02-29T09:08:43.861Z,4.47
2016-02-29T09:09:43.863Z,4.28
2016-02-29T09:10:43.882Z,4.47
2016-02-29T09:11:43.899Z,4.77
2016-02-29T09:12:43.918Z,4.57
2016-02-29T09:13:43.921Z,4.47
2016-02-29T09:14:43.939Z,4.38
2016-02-29T09:21:13.159Z,3.7
2016-02-29T09:22:13.177Z,3.99
2016-02-29T09:23:13.179Z,3.89
2016-02-29T09:24:13.213Z,4.09
2016-02-29T09:25:13.200Z,3.8
2016-02-29T09:26:13.234Z,3.99
2016-02-29T09:27:13.222Z,4.28
2016-02-29T09:28:13.256Z,4.47
2016-02-29T09:29:13.259Z,4.67
2016-02-29T09:30:13.276Z,4.57
2016-02-29T09:31:13.278Z,4.77
2016-02-29T09:32:13.297Z,4.77
2016-02-29T09:33:13.317Z,5.06
2016-02-29T09:34:13.319Z,5.05
2016-02-29T09:35:13.337Z,5.25
2016-02-29T09:36:13.339Z,4.86
2016-02-29T09:37:13.358Z,5.15
2016-02-29T09:38:13.376Z,5.15
2016-02-29T09:39:13.395Z,5.44
2016-02-29T09:40:13.397Z,5.15
2016-02-29T09:41:13.416Z,5.83
2016-02-29T09:42:13.433Z,5.54
2016-02-29T09:43:13.452Z,5.44
2016-02-29T09:44:13.454Z,5.54
2016-02-29T09:45:13.457Z,6.02
2016-02-29T09:46:37.775Z,6.21
2016-02-29T10:18:08.279Z,9.38
2016-02-29T10:19:08.299Z,9.67
2016-02-29T10:20:08.301Z,8.99
2016-02-29T10:21:08.304Z,8.8
2016-02-29T10:22:08.306Z,9
2016-02-29T10:23:08.325Z,8.61
2016-02-29T10:24:08.327Z,8.81
2016-02-29T10:25:08.345Z,8.71
2016-02-29T10:26:08.348Z,8.32
2016-02-29T10:27:08.367Z,8.42
2016-02-29T10:28:08.416Z,8.32
2016-02-29T10:29:08.356Z,8.42
2016-02-29T10:30:08.375Z,8.52
2016-02-29T10:31:08.393Z,8.23
2016-02-29T10:32:08.380Z,8.62
2016-02-29T10:33:08.398Z,8.42
2016-02-29T10:34:08.400Z,8.42
2016-02-29T10:35:08.419Z,8.42
2016-02-29T10:36:08.422Z,8.13
2016-02-29T10:37:08.425Z,8.13
2016-02-29T10:38:08.427Z,8.42
2016-02-29T10:39:08.430Z,8.13
2016-02-29T10:40:08.449Z,8.23
2016-02-29T10:41:08.451Z,8.13
2016-02-29T10:42:08.454Z,8.23
2016-02-29T10:43:08.535Z,8.13
2016-02-29T10:44:08.474Z,8.13
2016-02-29T10:45:08.477Z,8.23
2016-02-29T10:46:08.512Z,8.33
2016-02-29T10:47:08.499Z,8.33
2016-02-29T10:48:08.532Z,8.42
2016-02-29T10:49:08.504Z,8.33
2016-02-29T10:50:08.523Z,8.52
2016-02-29T10:51:08.525Z,8.62
2016-02-29T10:52:08.543Z,8.52
2016-02-29T10:53:08.531Z,8.51
2016-02-29T10:54:08.533Z,8.32
2016-02-29T10:55:08.582Z,8.32
2016-02-29T10:56:08.570Z,8.81
2016-02-29T10:57:08.556Z,8.91
2016-02-29T10:58:08.637Z,8.61
2016-02-29T10:59:08.593Z,8.61
2016-02-29T11:00:08.595Z,8.71
2016-02-29T11:01:08.598Z,8.71
2016-02-29T11:02:08.601Z,8.61
2016-02-29T11:03:08.604Z,8.61
2016-02-29T11:04:08.622Z,9
2016-02-29T11:05:08.677Z,9.09
2016-02-29T11:06:08.633Z,9
2016-02-29T11:07:08.632Z,9.09
2016-02-29T11:08:08.640Z,9.19
2016-02-29T11:09:08.632Z,9.09
2016-02-29T11:10:08.639Z,9.09
2016-02-29T11:11:08.615Z,9.09
2016-02-29T11:12:08.623Z,9.19
2016-02-29T11:13:08.622Z,9.19
2016-02-29T11:14:08.637Z,9
2016-02-29T11:15:08.619Z,9.19
2016-02-29T11:16:23.915Z,9
2016-02-29T11:17:23.932Z,9.28
2016-02-29T11:18:23.933Z,9.58
2016-02-29T11:19:23.950Z,9.09
2016-02-29T11:20:23.967Z,9.57
2016-02-29T11:21:23.953Z,9.67
2016-02-29T11:22:23.955Z,9.47
2016-02-29T11:23:23.957Z,9.57
2016-02-29T11:24:23.975Z,9.67
2016-02-29T11:25:23.978Z,9.57
2016-02-29T11:26:23.996Z,9.57
2016-02-29T11:27:23.982Z,9.47
2016-02-29T11:28:24.000Z,9.28
2016-02-29T11:29:24.003Z,9.38
2016-02-29T11:30:24.005Z,9.77
2016-02-29T11:31:24.008Z,9.77
2016-02-29T11:32:24.025Z,9.67
2016-02-29T11:33:24.028Z,9.66
2016-02-29T11:34:24.047Z,9.47
2016-02-29T11:35:24.080Z,9.76
2016-02-29T11:36:24.067Z,9.67
2016-02-29T11:37:24.055Z,9.57
2016-02-29T11:38:24.088Z,9.47
2016-02-29T11:39:24.107Z,9.47
2016-02-29T11:40:24.078Z,9.47
2016-02-29T11:41:24.080Z,9.56
2016-02-29T11:42:24.099Z,9.66
2016-02-29T11:43:24.102Z,9.47
2016-02-29T11:44:24.120Z,9.86
2016-02-29T11:45:55.435Z,9.66
2016-02-29T11:46:24.109Z,9.57
2016-02-29T11:47:24.129Z,9.57
2016-02-29T11:48:24.131Z,9.67
2016-02-29T11:49:24.149Z,9.28
2016-02-29T11:50:24.152Z,9.28
2016-02-29T11:51:24.154Z,9.57
2016-02-29T11:52:24.157Z,9.47
2016-02-29T11:53:24.176Z,9.57
2016-02-29T11:54:24.179Z,9.57
2016-02-29T11:55:24.181Z,9.57
2016-02-29T11:56:24.200Z,9.47
2016-02-29T11:57:24.186Z,9.67
2016-02-29T11:58:24.189Z,9.19
2016-02-29T11:59:24.208Z,9.47
2016-02-29T12:00:24.211Z,9.38
2016-02-29T12:01:24.228Z,8.99
2016-02-29T12:02:24.231Z,9.28
2016-02-29T12:03:24.233Z,9.09
2016-02-29T12:04:24.236Z,9.19
2016-02-29T12:05:24.239Z,9.19
2016-02-29T12:06:24.242Z,9.19
2016-02-29T12:07:24.261Z,8.99
2016-02-29T12:08:24.263Z,9.19
2016-02-29T12:09:24.281Z,9.09
2016-02-29T12:10:24.283Z,8.99
2016-02-29T12:11:24.286Z,9.09
2016-02-29T12:12:24.289Z,9.09
2016-02-29T12:13:24.308Z,9
2016-02-29T12:14:24.152Z,8.8
2016-02-29T12:20:51.749Z,9
2016-02-29T12:21:51.751Z,8.8
2016-02-29T12:22:51.754Z,9
2016-02-29T12:23:51.773Z,8.7
2016-02-29T12:24:51.775Z,8.9
2016-02-29T12:25:51.793Z,8.9
2016-02-29T12:26:51.795Z,9
2016-02-29T12:27:51.798Z,8.9
2016-02-29T12:28:51.801Z,8.9
2016-02-29T12:29:51.803Z,8.9
2016-02-29T12:30:51.806Z,8.9
2016-02-29T12:31:51.825Z,8.9
2016-02-29T12:32:51.827Z,9.28
2016-02-29T12:33:51.831Z,8.9
2016-02-29T12:34:51.833Z,8.9
2016-02-29T12:35:51.851Z,8.9
2016-02-29T12:36:51.854Z,9
2016-02-29T12:37:51.872Z,9
2016-02-29T12:38:51.859Z,8.9
2016-02-29T12:39:51.861Z,8.9
2016-02-29T12:40:51.881Z,9
2016-02-29T12:41:51.899Z,9
2016-02-29T12:42:51.902Z,9
2016-02-29T12:43:51.904Z,8.9
2016-02-29T12:44:51.907Z,8.9
2016-02-29T12:52:34.632Z,9.09
2016-02-29T12:53:34.634Z,8.9
2016-02-29T12:54:34.637Z,8.8
2016-02-29T12:55:34.655Z,8.7
2016-02-29T12:56:34.657Z,8.7
2016-02-29T12:57:34.676Z,9.09
2016-02-29T12:58:34.678Z,8.9
2016-02-29T12:59:34.665Z,8.9
2016-02-29T13:00:34.684Z,8.8
2016-02-29T13:01:34.687Z,8.8
2016-02-29T13:02:34.705Z,8.9
2016-02-29T13:03:34.708Z,9.09
2016-02-29T13:04:34.711Z,9
2016-02-29T13:05:34.720Z,8.9
2016-02-29T13:06:34.722Z,9
2016-02-29T13:07:34.740Z,8.9
2016-02-29T13:08:34.742Z,8.7
2016-02-29T13:09:34.745Z,8.8
2016-02-29T13:10:34.748Z,8.8
2016-02-29T13:11:34.751Z,9.09
2016-02-29T13:12:34.754Z,8.9
2016-02-29T13:13:34.772Z,9.09
2016-02-29T13:14:34.790Z,8.9
2016-02-29T13:20:41.963Z,9.09
2016-02-29T13:21:41.980Z,9
2016-02-29T13:22:41.983Z,8.9
2016-02-29T13:23:41.986Z,8.8
2016-02-29T13:24:42.005Z,8.7
2016-02-29T13:25:42.008Z,8.51
2016-02-29T13:26:42.026Z,7.84
2016-02-29T13:27:42.013Z,8.13
2016-02-29T13:28:42.031Z,8.03
2016-02-29T13:29:42.034Z,7.94
2016-02-29T13:30:42.037Z,8.23
2016-02-29T13:31:42.071Z,8.33
2016-02-29T13:32:42.057Z,8.32
2016-02-29T13:33:42.076Z,8.71
2016-02-29T13:34:42.079Z,8.32
2016-02-29T13:35:42.081Z,8.13
2016-02-29T13:36:42.084Z,8.03
2016-02-29T13:37:42.087Z,7.84
2016-02-29T13:38:42.090Z,7.84
2016-02-29T13:39:42.107Z,7.75
2016-02-29T13:40:42.110Z,8.52
2016-02-29T13:41:42.128Z,8.42
2016-02-29T13:42:42.132Z,8.23
2016-02-29T13:43:41.993Z,8.61
2016-02-29T13:44:42.153Z,7.94
2016-02-29T13:50:18.024Z,7.94
2016-02-29T13:51:18.028Z,8.33
2016-02-29T13:52:18.061Z,8.71
2016-02-29T13:53:18.049Z,8.9
2016-02-29T13:54:18.066Z,9.09
2016-02-29T13:55:18.054Z,9.09
2016-02-29T13:56:18.073Z,9
2016-02-29T13:57:18.075Z,8.99
2016-02-29T13:58:18.078Z,9.57
2016-02-29T13:59:18.080Z,8.03
2016-02-29T14:00:18.099Z,7.82
2016-02-29T14:01:18.101Z,8.01
2016-02-29T14:02:18.121Z,6.95
2016-02-29T14:03:18.123Z,7.9
2016-02-29T14:04:18.126Z,7.71
2016-02-29T14:05:18.143Z,7.62
2016-02-29T14:06:18.177Z,7.04
2016-02-29T14:07:18.148Z,6.94
2016-02-29T14:08:18.167Z,7.04
2016-02-29T14:09:18.154Z,6.74
2016-02-29T14:10:18.157Z,6.55
2016-02-29T14:11:18.175Z,6.94
2016-02-29T14:12:18.178Z,6.36
2016-02-29T14:13:18.180Z,6.37
2016-02-29T14:14:18.183Z,6.37
2016-02-29T14:18:27.678Z,5.5
2016-02-29T14:19:07.447Z,5.69
2016-02-29T14:20:07.465Z,6.65
2016-02-29T14:21:07.468Z,5.98
2016-02-29T14:22:07.470Z,5.6
2016-02-29T14:23:07.473Z,5.6
2016-02-29T14:24:07.475Z,5.7
2016-02-29T14:25:07.494Z,5.6
2016-02-29T14:26:07.496Z,5.6
2016-02-29T14:27:07.500Z,5.51
2016-02-29T14:28:07.518Z,5.7
2016-02-29T14:29:07.505Z,5.41
2016-02-29T14:30:07.523Z,5.61
2016-02-29T14:31:07.510Z,5.71
2016-02-29T14:32:07.513Z,5.9
2016-02-29T14:33:07.532Z,5.71
2016-02-29T14:34:07.534Z,5.9
2016-02-29T14:35:07.552Z,6.19
2016-02-29T14:36:07.570Z,6.19
2016-02-29T14:37:07.558Z,5.99
2016-02-29T14:38:07.560Z,5.61
2016-02-29T14:39:07.563Z,5.61
2016-02-29T14:40:07.566Z,6.1
2016-02-29T14:41:07.584Z,6
2016-02-29T14:42:07.587Z,5.9
2016-02-29T14:43:07.590Z,6.1
2016-02-29T14:44:07.608Z,5.8
2016-02-29T14:45:07.611Z,5.8
2016-02-29T14:48:14.478Z,6.38
2016-02-29T14:49:14.465Z,6.29
2016-02-29T14:50:14.452Z,6.38
2016-02-29T14:51:14.470Z,6.48
2016-02-29T14:52:14.505Z,6.29
2016-02-29T14:53:14.475Z,6.38
2016-02-29T14:54:14.494Z,6.29
2016-02-29T14:55:14.496Z,6.48
2016-02-29T14:56:14.499Z,6.38
2016-02-29T14:57:14.502Z,6.2
2016-02-29T14:58:14.739Z,6.48
2016-02-29T14:59:14.507Z,6.1
2016-02-29T15:00:14.651Z,6.68
2016-02-29T15:01:14.544Z,6.38
2016-02-29T15:02:14.546Z,6.58